Time;durP1;ratioP1;P1;durP2;ratioP2;P2;SDS_P1;SDS_P2;PMS_P1;PMS_P2;Temp;Humidity;BMP_temperature;BMP_pressure;BME280_temperature;BME280_humidity;BME280_pressure;Samples;Min_cycle;Max_cycle;Signal;HPM_P1;HPM_P2
2021/10/21 00:00:26;;;;;;;173.45;158.95;;;;;;;3.73;100.00;101783.59;5032136;28;20544;-79
2021/10/21 00:02:53;;;;;;;182.40;168.13;;;;;;;3.70;100.00;101786.50;5034072;28;20057;-77
2021/10/21 00:05:19;;;;;;;168.75;154.73;;;;;;;3.33;100.00;101777.41;5032551;28;20525;-79
2021/10/21 00:07:48;;;;;;;200.23;184.20;;;;;;;3.62;100.00;101772.22;5035649;28;20052;-79
2021/10/21 00:10:15;;;;;;;159.98;147.27;;;;;;;3.59;100.00;101766.41;5031180;28;20049;-81
2021/10/21 00:12:42;;;;;;;189.95;174.93;;;;;;;3.77;100.00;101771.84;5032955;28;20107;-79
2021/10/21 00:15:11;;;;;;;186.35;170.93;;;;;;;3.60;100.00;101765.44;5034857;28;20401;-80
2021/10/21 00:17:39;;;;;;;185.23;170.35;;;;;;;3.73;100.00;101771.28;5032128;28;20049;-79
2021/10/21 00:20:08;;;;;;;176.43;162.95;;;;;;;3.71;100.00;101767.13;5029907;28;20049;-79
2021/10/21 00:22:35;;;;;;;154.00;141.25;;;;;;;3.60;100.00;101760.16;5031579;28;20119;-78
2021/10/21 00:25:04;;;;;;;177.05;162.70;;;;;;;3.65;100.00;101760.59;5032320;28;20053;-79
2021/10/21 00:27:31;;;;;;;151.98;139.35;;;;;;;3.52;100.00;101757.41;5033348;28;20045;-78
2021/10/21 00:29:57;;;;;;;165.63;152.52;;;;;;;3.73;100.00;101752.06;5031882;28;20515;-79
2021/10/21 00:32:24;;;;;;;180.57;166.43;;;;;;;3.57;100.00;101755.19;5032366;28;20111;-78
2021/10/21 00:34:51;;;;;;;121.15;110.15;;;;;;;3.55;100.00;101750.09;5033367;28;20519;-78
2021/10/21 00:37:18;;;;;;;120.57;109.75;;;;;;;3.64;100.00;101748.44;5034705;28;20049;-78
2021/10/21 00:39:45;;;;;;;126.72;115.00;;;;;;;3.50;100.00;101739.13;5030242;28;20060;-79
2021/10/21 00:42:13;;;;;;;178.35;165.02;;;;;;;3.52;100.00;101744.28;5028531;28;20375;-78
2021/10/21 00:44:39;;;;;;;183.50;168.82;;;;;;;3.53;100.00;101740.66;5032235;28;20045;-79
2021/10/21 00:47:07;;;;;;;184.93;170.40;;;;;;;3.56;100.00;101730.72;5032838;28;20060;-78
2021/10/21 00:49:33;;;;;;;173.30;159.75;;;;;;;3.46;100.00;101735.13;5031330;28;20056;-78
2021/10/21 00:52:00;;;;;;;172.63;158.75;;;;;;;3.39;100.00;101731.38;5033671;28;20053;-80
2021/10/21 00:54:27;;;;;;;168.68;155.35;;;;;;;3.09;100.00;101733.09;5030394;28;20107;-79
2021/10/21 00:56:55;;;;;;;170.77;156.68;;;;;;;3.25;100.00;101732.56;5031819;28;20443;-79
2021/10/21 00:59:24;;;;;;;132.15;120.60;;;;;;;3.29;100.00;101723.47;5030739;28;20457;-79
2021/10/21 01:01:50;;;;;;;134.02;122.35;;;;;;;3.26;100.00;101723.72;5024769;28;20045;-79
2021/10/21 01:04:17;;;;;;;109.38;99.22;;;;;;;3.41;100.00;101717.13;5027865;28;20105;-79
2021/10/21 01:06:44;;;;;;;194.88;180.25;;;;;;;3.50;100.00;101712.03;5034451;28;20096;-79
2021/10/21 01:09:11;;;;;;;121.10;110.82;;;;;;;3.51;100.00;101700.56;5031745;28;20115;-79
2021/10/21 01:11:40;;;;;;;113.80;104.30;;;;;;;3.29;100.00;101705.09;5031063;28;20076;-80
2021/10/21 01:14:07;;;;;;;122.40;112.07;;;;;;;3.40;100.00;101704.16;5033093;28;20095;-78
2021/10/21 01:16:37;;;;;;;122.28;111.45;;;;;;;3.26;100.00;101702.72;5031461;28;20045;-77
2021/10/21 01:19:04;;;;;;;131.48;120.22;;;;;;;3.40;100.00;101694.47;5034562;28;20045;-78
2021/10/21 01:21:32;;;;;;;130.18;118.75;;;;;;;3.36;100.00;101697.50;5031611;28;20552;-79
2021/10/21 01:23:59;;;;;;;128.13;117.25;;;;;;;3.40;100.00;101696.28;5030356;28;20564;-78
2021/10/21 01:26:25;;;;;;;125.57;114.63;;;;;;;3.33;100.00;101693.38;5034008;28;20663;-79
2021/10/21 01:28:52;;;;;;;115.85;105.78;;;;;;;3.33;100.00;101697.75;5030946;28;20046;-80
2021/10/21 01:31:19;;;;;;;122.15;112.07;;;;;;;3.36;100.00;101690.47;5028573;28;20131;-79
2021/10/21 01:33:46;;;;;;;119.82;109.78;;;;;;;3.46;100.00;101692.28;5032760;28;20041;-79
2021/10/21 01:36:14;;;;;;;112.60;103.35;;;;;;;3.39;100.00;101686.75;5032746;28;20042;-79
2021/10/21 01:38:42;;;;;;;122.60;112.35;;;;;;;3.35;100.00;101691.41;5031206;28;20104;-79
2021/10/21 01:41:09;;;;;;;112.30;102.90;;;;;;;3.32;100.00;101689.06;5032700;28;20544;-77
2021/10/21 01:43:41;;;;;;;110.20;100.82;;;;;;;3.28;100.00;101679.78;5032097;28;20059;-81
2021/10/21 01:46:09;;;;;;;125.78;115.22;;;;;;;3.38;100.00;101688.50;5032507;28;20564;-80
2021/10/21 01:48:35;;;;;;;118.35;107.72;;;;;;;3.28;100.00;101682.44;5031922;28;20049;-79
2021/10/21 01:51:02;;;;;;;116.47;106.10;;;;;;;3.28;100.00;101681.59;5030554;28;20119;-79
2021/10/21 01:53:29;;;;;;;117.03;107.07;;;;;;;3.23;100.00;101681.97;5032443;28;20057;-80
2021/10/21 01:55:57;;;;;;;124.57;114.10;;;;;;;3.36;100.00;101689.59;5032176;28;20371;-80
2021/10/21 01:58:24;;;;;;;127.55;117.30;;;;;;;3.24;100.00;101682.81;5029646;28;20115;-79
2021/10/21 02:00:53;;;;;;;123.95;113.65;;;;;;;3.24;100.00;101688.06;5145009;22;20061;-78
2021/10/21 02:03:19;;;;;;;125.13;114.53;;;;;;;3.14;100.00;101681.00;4980410;28;20454;-79
2021/10/21 02:05:46;;;;;;;121.03;110.32;;;;;;;3.12;100.00;101679.50;4985297;28;20114;-80
2021/10/21 02:08:13;;;;;;;121.28;110.20;;;;;;;3.08;100.00;101681.53;4985515;28;20058;-79
2021/10/21 02:10:40;;;;;;;124.50;113.53;;;;;;;3.08;100.00;101684.16;4979728;28;20411;-80
2021/10/21 02:13:09;;;;;;;110.60;100.80;;;;;;;3.12;100.00;101687.38;4978744;28;20051;-79
2021/10/21 02:15:35;;;;;;;111.15;100.97;;;;;;;3.12;100.00;101695.25;4982762;28;20113;-80
2021/10/21 02:18:02;;;;;;;110.07;100.20;;;;;;;3.07;100.00;101689.53;4982896;28;20047;-78
2021/10/21 02:20:29;;;;;;;122.25;111.40;;;;;;;3.06;100.00;101682.66;4985952;28;20168;-80
2021/10/21 02:22:56;;;;;;;117.90;107.63;;;;;;;3.01;100.00;101685.66;4982965;28;20434;-80
2021/10/21 02:25:23;;;;;;;111.68;101.63;;;;;;;3.04;100.00;101689.81;4981503;28;20414;-79
2021/10/21 02:27:50;;;;;;;107.88;98.28;;;;;;;2.98;100.00;101683.28;4980787;28;20475;-79
2021/10/21 02:30:19;;;;;;;112.20;102.30;;;;;;;2.87;100.00;101697.31;4981587;28;20117;-79
2021/10/21 02:32:47;;;;;;;110.85;101.05;;;;;;;2.88;100.00;101688.50;4982838;28;20105;-79
2021/10/21 02:35:14;;;;;;;117.00;106.38;;;;;;;2.49;100.00;101682.25;4982650;28;20549;-79
2021/10/21 02:37:41;;;;;;;110.70;100.78;;;;;;;2.74;100.00;101679.19;4976552;28;20428;-79
2021/10/21 02:40:10;;;;;;;104.13;94.65;;;;;;;2.68;100.00;101679.72;4981090;28;20054;-78
2021/10/21 02:42:37;;;;;;;99.20;90.25;;;;;;;2.68;100.00;101687.59;4981560;28;20050;-77
2021/10/21 02:45:05;;;;;;;106.82;97.38;;;;;;;2.69;100.00;101678.78;4983033;28;20050;-78
2021/10/21 02:47:33;;;;;;;114.20;104.38;;;;;;;2.78;100.00;101674.50;4982328;28;20480;-79
2021/10/21 02:50:00;;;;;;;118.43;107.93;;;;;;;2.60;100.00;101670.81;4982958;28;20059;-80
2021/10/21 02:52:27;;;;;;;111.05;101.15;;;;;;;2.56;100.00;101674.69;4986742;28;20054;-79
2021/10/21 02:54:53;;;;;;;119.63;107.95;;;;;;;2.59;100.00;101672.63;4981848;28;20506;-79
2021/10/21 02:57:20;;;;;;;111.18;100.75;;;;;;;2.66;100.00;101679.03;4987426;28;20112;-79
2021/10/21 02:59:47;;;;;;;112.65;102.47;;;;;;;2.61;100.00;101675.13;4985054;28;20125;-79
2021/10/21 03:02:14;;;;;;;104.07;94.32;;;;;;;2.52;100.00;101674.94;4994306;28;20147;-80
2021/10/21 03:04:42;;;;;;;106.35;95.57;;;;;;;2.54;100.00;101672.19;5003653;28;20046;-78
2021/10/21 03:07:08;;;;;;;101.78;91.93;;;;;;;2.50;100.00;101674.22;5003590;28;20128;-79
2021/10/21 03:09:35;;;;;;;101.45;92.13;;;;;;;2.68;100.00;101674.47;5003884;28;20529;-80
2021/10/21 03:12:02;;;;;;;97.60;88.75;;;;;;;2.71;100.00;101668.13;4998478;28;20112;-78
2021/10/21 03:14:29;;;;;;;96.40;87.30;;;;;;;2.62;100.00;101666.28;5008020;28;20046;-79
2021/10/21 03:16:55;;;;;;;102.93;93.22;;;;;;;2.60;100.00;101660.34;5004813;28;20485;-79
2021/10/21 03:19:22;;;;;;;97.82;88.75;;;;;;;2.43;100.00;101656.53;5005755;28;20470;-79
2021/10/21 03:21:50;;;;;;;95.93;86.35;;;;;;;2.42;100.00;101657.47;5004632;28;20050;-79
2021/10/21 03:24:17;;;;;;;88.15;80.15;;;;;;;2.46;100.00;101657.09;5010326;28;20465;-79
2021/10/21 03:26:44;;;;;;;88.80;80.47;;;;;;;2.50;100.00;101662.91;5004089;28;20108;-78
2021/10/21 03:29:11;;;;;;;90.10;82.25;;;;;;;2.42;100.00;101660.97;5007833;28;20046;-79
2021/10/21 03:31:38;;;;;;;92.07;83.50;;;;;;;2.43;100.00;101656.53;5012238;28;20050;-79
2021/10/21 03:34:04;;;;;;;91.47;83.20;;;;;;;2.48;100.00;101651.72;5003301;28;20046;-79
2021/10/21 03:36:31;;;;;;;97.45;88.95;;;;;;;2.48;100.00;101646.47;5005879;28;20107;-78
2021/10/21 03:38:59;;;;;;;97.70;89.40;;;;;;;2.29;100.00;101647.19;5011802;28;20042;-79
2021/10/21 03:41:26;;;;;;;93.68;85.25;;;;;;;2.23;100.00;101645.09;5003684;28;20049;-79
2021/10/21 03:43:53;;;;;;;119.05;107.00;;;;;;;2.16;100.00;101641.34;5009538;28;20132;-79
2021/10/21 03:46:19;;;;;;;142.15;129.15;;;;;;;2.10;100.00;101637.44;5004261;28;20517;-79
2021/10/21 03:48:46;;;;;;;127.28;115.78;;;;;;;2.24;100.00;101633.66;5012407;28;20497;-80
2021/10/21 03:51:14;;;;;;;130.68;119.22;;;;;;;2.22;100.00;101630.34;5015951;28;20050;-78
2021/10/21 03:53:41;;;;;;;110.88;100.30;;;;;;;2.22;100.00;101633.78;5006792;28;20125;-79
2021/10/21 03:56:10;;;;;;;118.25;106.03;;;;;;;2.12;100.00;101630.28;5010255;28;20082;-77
2021/10/21 03:58:36;;;;;;;115.70;104.35;;;;;;;2.08;100.00;101628.88;5010258;28;20046;-79
2021/10/21 04:01:04;;;;;;;128.45;115.93;;;;;;;2.05;100.00;101623.88;5008518;28;20138;-79
2021/10/21 04:03:31;;;;;;;129.82;117.30;;;;;;;2.12;100.00;101621.56;5004424;28;20119;-79
2021/10/21 04:05:57;;;;;;;117.97;106.32;;;;;;;2.15;100.00;101629.19;5001306;28;20113;-79
2021/10/21 04:08:24;;;;;;;116.50;105.72;;;;;;;2.20;100.00;101622.59;5011574;28;20061;-80
2021/10/21 04:10:51;;;;;;;110.93;101.32;;;;;;;2.17;100.00;101622.03;5011495;28;20045;-81
2021/10/21 04:13:21;;;;;;;127.32;117.00;;;;;;;2.15;100.00;101618.69;5010412;28;20115;-79
2021/10/21 04:15:48;;;;;;;103.75;94.53;;;;;;;2.18;100.00;101626.28;5006682;28;20042;-79
2021/10/21 04:18:14;;;;;;;98.32;89.28;;;;;;;2.23;100.00;101617.09;5007471;28;20444;-79
2021/10/21 04:20:41;;;;;;;96.78;87.53;;;;;;;1.99;100.00;101614.72;5011236;28;20056;-79
2021/10/21 04:23:08;;;;;;;95.00;86.22;;;;;;;2.17;100.00;101614.16;5006681;28;20050;-78
2021/10/21 04:25:35;;;;;;;91.20;82.57;;;;;;;2.39;100.00;101615.78;5009338;28;20046;-80
2021/10/21 04:28:01;;;;;;;87.50;79.13;;;;;;;2.34;100.00;101615.38;5003988;28;20443;-82
2021/10/21 04:30:29;;;;;;;95.03;85.65;;;;;;;2.36;100.00;101609.03;5009330;28;20056;-80
2021/10/21 04:32:56;;;;;;;97.35;88.05;;;;;;;2.41;100.00;101603.38;5006593;28;20054;-81
2021/10/21 04:35:23;;;;;;;91.95;82.93;;;;;;;2.21;100.00;101599.81;5006454;28;20128;-81
2021/10/21 04:37:49;;;;;;;95.10;85.75;;;;;;;2.31;100.00;101603.34;5009235;28;20050;-79
2021/10/21 04:40:16;;;;;;;93.38;84.15;;;;;;;2.23;100.00;101608.41;5004191;28;20457;-79
2021/10/21 04:42:43;;;;;;;99.47;90.05;;;;;;;2.18;100.00;101607.94;5003857;28;20096;-80
2021/10/21 04:45:10;;;;;;;114.95;104.60;;;;;;;2.24;100.00;101605.66;5006769;28;20101;-79
2021/10/21 04:47:38;;;;;;;108.13;98.03;;;;;;;2.49;100.00;101600.94;5011202;28;20125;-79
2021/10/21 04:50:05;;;;;;;104.50;94.45;;;;;;;2.57;100.00;101597.66;5003096;28;20042;-79
2021/10/21 04:52:32;;;;;;;105.78;95.95;;;;;;;2.46;100.00;101598.59;5012364;28;20058;-79
2021/10/21 04:54:59;;;;;;;109.68;99.72;;;;;;;2.44;100.00;101593.47;5005949;28;20462;-80
2021/10/21 04:57:26;;;;;;;98.45;89.35;;;;;;;2.41;100.00;101585.84;5001316;28;20104;-80
2021/10/21 04:59:53;;;;;;;104.20;94.15;;;;;;;2.48;100.00;101592.25;5005530;28;20207;-79
2021/10/21 05:02:19;;;;;;;107.65;98.03;;;;;;;2.36;100.00;101587.22;5005948;28;20062;-78
2021/10/21 05:04:47;;;;;;;116.45;105.72;;;;;;;2.53;100.00;101597.09;5002332;28;20545;-79
2021/10/21 05:07:14;;;;;;;131.80;118.80;;;;;;;2.52;100.00;101596.25;4979209;28;20048;-79
2021/10/21 05:09:41;;;;;;;125.65;113.30;;;;;;;2.61;100.00;101593.81;5028099;28;20053;-81
2021/10/21 05:12:08;;;;;;;117.43;105.97;;;;;;;2.78;100.00;101580.06;5023848;28;20050;-79
2021/10/21 05:14:34;;;;;;;127.93;115.90;;;;;;;3.04;100.00;101590.06;5024894;28;20056;-79
2021/10/21 05:17:01;;;;;;;121.75;109.60;;;;;;;3.18;100.00;101593.13;5022718;28;20050;-79
2021/10/21 05:19:28;;;;;;;111.10;100.68;;;;;;;3.53;100.00;101585.69;5028429;28;20049;-80
2021/10/21 05:21:56;;;;;;;119.75;108.40;;;;;;;3.62;100.00;101584.84;5029149;28;20306;-79
2021/10/21 05:24:23;;;;;;;113.07;102.88;;;;;;;3.81;100.00;101581.38;5025625;28;20176;-79
2021/10/21 05:26:49;;;;;;;115.13;104.82;;;;;;;4.11;100.00;101575.94;5026592;28;20370;-79
2021/10/21 05:29:16;;;;;;;131.60;120.57;;;;;;;4.30;100.00;101580.31;5025462;28;20053;-78
2021/10/21 05:31:43;;;;;;;122.72;112.35;;;;;;;4.68;100.00;101582.91;5029996;28;20042;-80
2021/10/21 05:34:10;;;;;;;120.75;111.18;;;;;;;4.81;100.00;101583.38;5026578;28;20053;-79
2021/10/21 05:36:36;;;;;;;122.25;112.05;;;;;;;4.72;100.00;101579.84;5027372;28;20440;-82
2021/10/21 05:39:04;;;;;;;137.57;126.63;;;;;;;4.98;100.00;101577.34;5029147;28;20053;-79
2021/10/21 05:41:31;;;;;;;133.13;122.72;;;;;;;5.35;100.00;101572.91;5024116;28;20433;-79
2021/10/21 05:43:58;;;;;;;118.90;109.53;;;;;;;5.52;100.00;101580.00;5026422;28;20462;-79
2021/10/21 05:46:25;;;;;;;112.38;103.40;;;;;;;5.73;100.00;101583.13;5023825;28;20114;-80
2021/10/21 05:48:51;;;;;;;113.03;103.90;;;;;;;5.79;100.00;101576.44;5025171;28;20124;-80
2021/10/21 05:51:18;;;;;;;113.22;104.50;;;;;;;6.12;100.00;101580.16;5025845;28;20045;-78
2021/10/21 05:53:45;;;;;;;113.82;104.82;;;;;;;6.08;100.00;101572.69;5022957;28;20042;-80
2021/10/21 05:56:13;;;;;;;117.40;108.03;;;;;;;6.21;100.00;101570.47;5022408;28;20049;-79
2021/10/21 05:58:40;;;;;;;117.93;108.70;;;;;;;6.52;100.00;101573.44;5028534;28;20110;-78
2021/10/21 06:01:07;;;;;;;118.05;108.90;;;;;;;6.61;100.00;101576.94;5026394;28;20114;-79
2021/10/21 06:03:37;;;;;;;107.97;99.28;;;;;;;6.79;100.00;101576.84;5024734;28;20107;-78
2021/10/21 06:06:05;;;;;;;114.40;105.13;;;;;;;7.20;100.00;101569.00;5023839;28;20053;-80
2021/10/21 06:08:32;;;;;;;111.65;102.68;;;;;;;7.57;100.00;101561.44;5029015;28;20041;-79
2021/10/21 06:11:01;;;;;;;103.07;95.13;;;;;;;7.63;100.00;101570.53;5022376;28;20587;-79
2021/10/21 06:13:29;;;;;;;97.75;90.35;;;;;;;7.71;100.00;101559.94;5022003;28;20060;-79
2021/10/21 06:15:56;;;;;;;107.60;99.60;;;;;;;8.07;100.00;101553.44;5028389;28;20050;-78
2021/10/21 06:18:22;;;;;;;107.57;99.05;;;;;;;8.35;100.00;101559.16;5028471;28;20045;-81
2021/10/21 06:20:49;;;;;;;160.88;150.13;;;;;;;8.54;100.00;101550.84;5024781;28;20061;-79
2021/10/21 06:23:16;;;;;;;157.68;146.98;;;;;;;8.82;100.00;101550.38;5021966;28;20053;-78
2021/10/21 06:25:43;;;;;;;144.30;134.02;;;;;;;9.02;100.00;101548.94;5024651;28;20100;-80
2021/10/21 06:28:09;;;;;;;126.63;116.90;;;;;;;8.93;100.00;101550.81;5025436;28;20402;-80
2021/10/21 06:30:38;;;;;;;118.07;109.28;;;;;;;9.54;100.00;101544.75;5020453;28;20111;-80
2021/10/21 06:33:05;;;;;;;128.95;120.25;;;;;;;9.39;100.00;101539.41;5025880;28;20770;-79
2021/10/21 06:35:32;;;;;;;103.10;95.78;;;;;;;9.44;100.00;101538.84;5025771;28;20107;-80
2021/10/21 06:37:58;;;;;;;125.03;117.07;;;;;;;9.79;100.00;101534.75;5028439;28;20139;-78
2021/10/21 06:40:26;;;;;;;125.63;117.47;;;;;;;10.44;100.00;101525.25;5022046;28;20045;-79
2021/10/21 06:42:52;;;;;;;109.43;102.10;;;;;;;10.47;100.00;101533.69;5023285;28;20053;-78
2021/10/21 06:45:19;;;;;;;97.80;91.07;;;;;;;10.99;100.00;101524.69;5026649;28;20038;-79
2021/10/21 06:47:47;;;;;;;92.22;85.93;;;;;;;10.91;100.00;101516.81;5021093;28;20474;-83
2021/10/21 06:50:14;;;;;;;64.45;59.53;;;;;;;11.27;100.00;101510.63;5022322;28;20045;-78
2021/10/21 06:52:43;;;;;;;65.90;60.90;;;;;;;11.09;100.00;101511.06;5023719;28;20484;-77
2021/10/21 06:55:11;;;;;;;83.85;77.78;;;;;;;11.51;100.00;101513.91;5025794;28;20054;-79
2021/10/21 06:57:49;;;;;;;121.88;109.40;;;;;;;12.08;100.00;101502.22;5022713;28;20056;-79
2021/10/21 07:00:16;;;;;;;231.38;183.85;;;;;;;12.12;100.00;101503.47;5024729;28;20466;-79
2021/10/21 07:02:44;;;;;;;72.65;67.70;;;;;;;11.85;100.00;101505.97;5024918;28;20060;-77
2021/10/21 07:05:13;;;;;;;72.80;68.13;;;;;;;12.51;100.00;101500.16;5029741;28;20460;-78
2021/10/21 07:07:40;;;;;;;70.47;65.30;;;;;;;12.63;100.00;101488.94;5030233;28;20132;-78
2021/10/21 07:10:08;;;;;;;61.97;57.15;;;;;;;13.19;100.00;101492.13;5027284;28;20053;-78
2021/10/21 07:12:36;;;;;;;60.95;56.50;;;;;;;13.26;100.00;101481.47;5019832;28;20108;-77
2021/10/21 07:15:04;;;;;;;52.95;49.10;;;;;;;13.44;100.00;101483.53;5020932;28;20466;-77
2021/10/21 07:17:31;;;;;;;54.50;50.45;;;;;;;13.52;100.00;101476.16;5025414;28;20453;-78
2021/10/21 07:19:57;;;;;;;54.38;50.20;;;;;;;13.66;100.00;101476.94;5025040;28;20470;-77
2021/10/21 07:22:26;;;;;;;63.22;58.92;;;;;;;14.05;100.00;101471.72;5026722;28;20053;-82
2021/10/21 07:24:52;;;;;;;63.75;59.40;;;;;;;14.08;100.00;101480.13;5021766;28;20116;-77
2021/10/21 07:27:19;;;;;;;64.60;60.50;;;;;;;14.59;100.00;101473.16;5023005;28;20143;-77
2021/10/21 07:29:46;;;;;;;60.55;56.08;;;;;;;15.34;100.00;101473.28;5022269;28;20049;-78
2021/10/21 07:32:13;;;;;;;62.42;58.20;;;;;;;15.31;100.00;101469.16;5028287;28;20053;-78
2021/10/21 07:34:42;;;;;;;56.85;53.05;;;;;;;15.30;100.00;101469.38;5021778;28;20053;-76
2021/10/21 07:37:09;;;;;;;54.88;50.78;;;;;;;15.69;100.00;101465.53;5023860;28;20499;-78
2021/10/21 07:39:38;;;;;;;44.83;41.40;;;;;;;16.07;100.00;101461.84;5025406;28;20045;-77
2021/10/21 07:42:05;;;;;;;44.20;40.95;;;;;;;16.79;100.00;101455.75;5021894;28;20072;-77
2021/10/21 07:44:33;;;;;;;44.33;40.95;;;;;;;17.30;100.00;101452.44;5021678;28;20457;-77
2021/10/21 07:47:01;;;;;;;46.72;43.42;;;;;;;17.63;100.00;101451.88;5026297;28;20435;-77
2021/10/21 07:49:28;;;;;;;43.65;40.60;;;;;;;17.70;100.00;101442.88;5025770;28;20111;-76
2021/10/21 07:51:55;;;;;;;46.55;42.88;;;;;;;17.63;100.00;101446.50;5026747;28;20115;-77
2021/10/21 07:54:24;;;;;;;45.97;42.33;;;;;;;17.72;100.00;101436.22;5028160;28;20069;-76
2021/10/21 07:56:53;;;;;;;44.00;40.80;;;;;;;17.70;100.00;101427.59;5028509;28;20049;-76
2021/10/21 07:59:20;;;;;;;45.90;42.30;;;;;;;18.06;100.00;101434.56;5027988;28;20049;-77
2021/10/21 08:01:47;;;;;;;44.45;41.15;;;;;;;18.54;100.00;101433.28;5022980;28;20119;-76
2021/10/21 08:04:15;;;;;;;44.25;41.25;;;;;;;19.12;100.00;101425.13;5024898;28;20058;-76
2021/10/21 08:06:42;;;;;;;40.83;38.33;;;;;;;19.44;100.00;101419.97;5027871;28;20370;-76
2021/10/21 08:09:09;;;;;;;40.45;37.75;;;;;;;19.78;100.00;101426.09;5034583;28;20056;-76
2021/10/21 08:11:36;;;;;;;39.28;36.40;;;;;;;20.10;100.00;101420.84;5029309;28;20062;-76
2021/10/21 08:14:04;;;;;;;41.20;38.50;;;;;;;19.71;100.00;101424.66;5028059;28;20127;-77
2021/10/21 08:16:31;;;;;;;41.85;39.15;;;;;;;19.98;100.00;101405.88;5024573;28;20061;-77
2021/10/21 08:18:59;;;;;;;42.88;40.17;;;;;;;19.28;100.00;101404.66;5028976;28;20046;-77
2021/10/21 08:21:25;;;;;;;43.83;40.83;;;;;;;20.11;100.00;101398.19;5031753;28;20053;-77
2021/10/21 08:23:55;;;;;;;40.58;37.95;;;;;;;19.80;100.00;101397.03;5017497;28;20041;-77
2021/10/21 08:26:22;;;;;;;39.05;36.40;;;;;;;19.31;100.00;101393.38;5028023;28;20081;-76
2021/10/21 08:28:50;;;;;;;39.63;36.97;;;;;;;20.29;100.00;101388.94;5028403;28;20049;-76
2021/10/21 08:31:19;;;;;;;39.40;36.85;;;;;;;20.66;100.00;101384.72;5028683;28;20050;-77
2021/10/21 08:33:46;;;;;;;41.00;38.33;;;;;;;21.44;100.00;101379.63;5028217;28;20111;-77
2021/10/21 08:36:15;;;;;;;41.05;38.50;;;;;;;21.80;99.21;101374.38;5025175;28;20107;-77
2021/10/21 08:38:42;;;;;;;42.00;39.33;;;;;;;21.76;96.36;101379.50;5031272;28;20433;-78
2021/10/21 08:41:11;;;;;;;40.08;37.53;;;;;;;21.66;88.58;101368.63;5025738;28;20540;-77
2021/10/21 08:43:38;;;;;;;38.15;35.75;;;;;;;22.07;81.88;101371.47;5029187;28;20061;-77
2021/10/21 08:46:05;;;;;;;39.80;37.05;;;;;;;21.88;90.62;101374.69;5024309;28;20644;-76
2021/10/21 08:48:35;;;;;;;40.28;37.70;;;;;;;21.02;100.00;101375.00;5029217;28;20050;-76
2021/10/21 08:51:05;;;;;;;39.05;36.55;;;;;;;21.87;99.01;101369.53;5031353;28;20077;-76
2021/10/21 08:53:32;;;;;;;40.72;37.90;;;;;;;21.95;85.93;101360.91;5026301;28;20049;-76
2021/10/21 08:55:59;;;;;;;38.95;36.50;;;;;;;22.41;81.19;101363.72;5022554;28;20061;-77
2021/10/21 08:58:27;;;;;;;40.83;38.15;;;;;;;22.84;77.58;101348.84;5029920;28;20123;-77
2021/10/21 09:00:58;;;;;;;40.30;37.70;;;;;;;22.86;72.65;101346.63;5027028;28;20102;-77
2021/10/21 09:03:49;;;;;;;41.63;38.97;;;;;;;19.82;100.00;101349.09;5031339;28;20148;-76
2021/10/21 09:06:28;;;;;;;40.05;37.45;;;;;;;19.28;98.80;101351.59;5030697;28;20058;-77
2021/10/21 09:08:55;;;;;;;40.00;37.42;;;;;;;20.42;100.00;101347.25;5033654;28;20136;-77
2021/10/21 09:11:22;;;;;;;40.13;37.60;;;;;;;21.51;88.14;101345.06;5028119;28;20112;-77
2021/10/21 09:14:06;;;;;;;41.67;38.97;;;;;;;19.22;100.00;101349.91;5024623;28;20050;-76
2021/10/21 09:16:32;;;;;;;42.20;39.47;;;;;;;19.57;100.00;101344.16;5022712;28;20115;-78
2021/10/21 09:19:09;;;;;;;43.28;40.17;;;;;;;20.72;100.00;101338.63;5026275;28;20046;-77
2021/10/21 09:21:38;;;;;;;42.92;39.80;;;;;;;21.24;100.00;101332.50;5031264;28;20053;-77
2021/10/21 09:24:24;;;;;;;41.15;38.13;;;;;;;18.88;100.00;101333.81;5031209;28;20049;-77
2021/10/21 09:27:05;;;;;;;42.25;39.03;;;;;;;18.97;100.00;101335.03;5029296;28;20053;-76
2021/10/21 09:29:33;;;;;;;42.15;39.38;;;;;;;21.79;100.00;101318.69;5021005;28;20528;-76
2021/10/21 09:32:05;;;;;;;42.47;39.47;;;;;;;20.18;100.00;101330.56;5023475;28;20124;-77
2021/10/21 09:34:41;;;;;;;42.55;39.53;;;;;;;20.67;100.00;101327.81;5022997;28;20473;-76
2021/10/21 09:37:11;;;;;;;41.55;38.83;;;;;;;20.82;100.00;101316.31;5021675;28;20103;-77
2021/10/21 09:39:42;;;;;;;41.08;38.17;;;;;;;18.79;100.00;101313.75;5021883;28;20067;-76
2021/10/21 09:42:10;;;;;;;43.63;40.58;;;;;;;21.13;100.00;101305.69;5027734;28;20502;-78
2021/10/21 09:44:37;;;;;;;42.83;39.92;;;;;;;19.72;100.00;101300.44;5031040;28;20049;-77
2021/10/21 09:47:17;;;;;;;41.83;38.85;;;;;;;19.66;100.00;101299.56;5022218;28;20076;-76
2021/10/21 09:49:53;;;;;;;40.50;37.53;;;;;;;20.65;100.00;101286.75;5023324;28;20042;-78
2021/10/21 09:52:21;;;;;;;40.67;37.83;;;;;;;22.09;100.00;101278.16;5027090;28;20053;-77
2021/10/21 09:54:49;;;;;;;41.47;38.65;;;;;;;20.73;95.09;101282.78;5023547;28;20053;-77
2021/10/21 09:57:18;;;;;;;41.20;38.28;;;;;;;19.64;100.00;101284.72;5025124;28;20057;-77
2021/10/21 09:59:46;;;;;;;42.17;39.22;;;;;;;22.79;94.20;101274.91;5030354;28;20049;-77
2021/10/21 10:02:17;;;;;;;42.50;39.85;;;;;;;21.45;100.00;101268.59;5024811;28;20057;-77
2021/10/21 10:04:52;;;;;;;39.80;37.20;;;;;;;21.80;100.00;101271.63;5026051;28;20041;-77
2021/10/21 10:07:19;;;;;;;42.03;39.25;;;;;;;23.59;93.69;101271.38;5030015;28;20112;-77
2021/10/21 10:09:48;;;;;;;41.72;39.10;;;;;;;21.49;98.69;101266.16;5029063;28;20115;-76
2021/10/21 10:12:15;;;;;;;42.63;39.83;;;;;;;22.48;100.00;101266.84;5029896;28;20055;-76
2021/10/21 10:14:44;;;;;;;41.28;38.67;;;;;;;23.57;74.00;101257.28;5025991;28;20068;-76
2021/10/21 10:17:11;;;;;;;39.53;36.97;;;;;;;23.30;96.28;101255.81;5027485;28;20050;-76
2021/10/21 10:19:43;;;;;;;39.50;37.00;;;;;;;18.39;100.00;101262.78;5027832;28;20458;-77
2021/10/21 10:22:13;;;;;;;;;;;;;;;17.71;100.00;101253.78;5023230;28;20133;-77
2021/10/21 10:24:40;;;;;;;40.53;37.78;;;;;;;22.88;100.00;101246.19;5029100;28;19921;-77
2021/10/21 10:27:24;;;;;;;39.90;37.30;;;;;;;25.02;83.98;101240.31;5023646;28;20123;-77
2021/10/21 10:29:51;;;;;;;39.92;37.00;;;;;;;24.26;79.18;101228.31;5025050;28;20127;-77
2021/10/21 10:32:34;;;;;;;42.50;39.85;;;;;;;22.58;66.60;101234.34;5029568;28;20470;-76
2021/10/21 10:35:02;;;;;;;44.25;41.42;;;;;;;24.04;82.74;101226.09;5023311;28;20056;-77
2021/10/21 10:37:48;;;;;;;44.33;41.45;;;;;;;24.12;67.66;101220.84;5022970;28;20053;-76
2021/10/21 10:40:15;;;;;;;41.95;39.15;;;;;;;24.21;84.79;101204.78;5027263;28;20048;-77
2021/10/21 10:43:01;;;;;;;43.55;40.55;;;;;;;23.38;87.74;101214.56;5019464;28;20090;-77
2021/10/21 10:45:48;;;;;;;40.30;37.60;;;;;;;23.80;90.52;101202.38;5026366;28;20488;-77
2021/10/21 10:48:16;;;;;;;39.85;37.25;;;;;;;25.02;79.00;101196.84;5022454;28;20045;-78
2021/10/21 10:50:54;;;;;;;40.67;37.97;;;;;;;24.01;87.99;101192.19;5029100;28;20103;-77
2021/10/21 10:53:44;;;;;;;42.17;39.33;;;;;;;22.62;90.74;101186.66;5016392;28;20067;-76
2021/10/21 10:56:50;;;;;;;42.45;39.15;;;;;;;24.01;79.30;101181.34;5022919;28;20056;-76
2021/10/21 10:59:31;;;;;;;39.58;36.88;;;;;;;24.28;83.67;101166.44;5026174;28;20038;-77
2021/10/21 11:02:00;;;;;;;41.58;38.88;;;;;;;24.56;78.89;101170.22;5025918;28;20402;-76
2021/10/21 11:05:02;;;;;;;40.22;37.72;;;;;;;26.77;46.29;101157.56;5020204;28;20049;-76